sensor_id;sensor_type;location;lat;lon;timestamp;pressure;altitude;pressure_sealevel;temperature;humidity
6938;BME280;40040;42.706;23.372;2023-01-28T00:00:18;144438.44;;;1.00;100.00
6938;BME280;40040;42.706;23.372;2023-01-28T00:02:46;144378.47;;;0.76;100.00
6938;BME280;40040;42.706;23.372;2023-01-28T00:05:14;144433.53;;;0.98;100.00
6938;BME280;40040;42.706;23.372;2023-01-28T00:07:41;144442.09;;;1.02;100.00
6938;BME280;40040;42.706;23.372;2023-01-28T00:10:09;144395.59;;;0.83;100.00
6938;BME280;40040;42.706;23.372;2023-01-28T00:12:36;144418.81;;;0.92;100.00
6938;BME280;40040;42.706;23.372;2023-01-28T00:15:03;144422.53;;;0.94;100.00
6938;BME280;40040;42.706;23.372;2023-01-28T00:17:32;144402.91;;;0.86;100.00
6938;BME280;40040;42.706;23.372;2023-01-28T00:19:58;144422.53;;;0.94;100.00
6938;BME280;40040;42.706;23.372;2023-01-28T00:22:25;144427.38;;;0.96;100.00
6938;BME280;40040;42.706;23.372;2023-01-28T00:24:52;144451.91;;;1.06;100.00
6938;BME280;40040;42.706;23.372;2023-01-28T00:27:19;144450.66;;;1.05;100.00
6938;BME280;40040;42.706;23.372;2023-01-28T00:29:46;144459.22;;;1.09;100.00
6938;BME280;40040;42.706;23.372;2023-01-28T00:32:12;144459.22;;;1.09;100.00
6938;BME280;40040;42.706;23.372;2023-01-28T00:34:41;144473.94;;;1.15;100.00
6938;BME280;40040;42.706;23.372;2023-01-28T00:37:08;144458.00;;;1.08;100.00
6938;BME280;40040;42.706;23.372;2023-01-28T00:39:35;144486.19;;;1.20;100.00
6938;BME280;40040;42.706;23.372;2023-01-28T00:42:02;144445.75;;;1.03;100.00
6938;BME280;40040;42.706;23.372;2023-01-28T00:44:28;144489.84;;;1.22;100.00
6938;BME280;40040;42.706;23.372;2023-01-28T00:46:55;144487.38;;;1.21;100.00
6938;BME280;40040;42.706;23.372;2023-01-28T00:49:22;144495.94;;;1.24;100.00
6938;BME280;40040;42.706;23.372;2023-01-28T00:51:50;144493.50;;;1.23;100.00
6938;BME280;40040;42.706;23.372;2023-01-28T00:54:17;144477.63;;;1.17;100.00
6938;BME280;40040;42.706;23.372;2023-01-28T00:56:43;144478.81;;;1.17;100.00
6938;BME280;40040;42.706;23.372;2023-01-28T00:59:10;144481.28;;;1.18;100.00
6938;BME280;40040;42.706;23.372;2023-01-28T01:01:37;144477.63;;;1.17;100.00
6938;BME280;40040;42.706;23.372;2023-01-28T01:04:04;144493.50;;;1.23;100.00
6938;BME280;40040;42.706;23.372;2023-01-28T01:06:34;144493.50;;;1.23;100.00
6938;BME280;40040;42.706;23.372;2023-01-28T01:09:04;144503.31;;;1.27;100.00
6938;BME280;40040;42.706;23.372;2023-01-28T01:11:32;144509.41;;;1.30;100.00
6938;BME280;40040;42.706;23.372;2023-01-28T01:14:00;144478.81;;;1.17;100.00
6938;BME280;40040;42.706;23.372;2023-01-28T01:16:31;144481.28;;;1.18;100.00
6938;BME280;40040;42.706;23.372;2023-01-28T01:19:01;144495.94;;;1.24;100.00
6938;BME280;40040;42.706;23.372;2023-01-28T01:21:29;144502.09;;;1.27;100.00
6938;BME280;40040;42.706;23.372;2023-01-28T01:23:56;144495.94;;;1.24;100.00
6938;BME280;40040;42.706;23.372;2023-01-28T01:26:25;144476.38;;;1.16;100.00
6938;BME280;40040;42.706;23.372;2023-01-28T01:28:52;144456.81;;;1.08;100.00
6938;BME280;40040;42.706;23.372;2023-01-28T01:31:20;144454.34;;;1.07;100.00
6938;BME280;40040;42.706;23.372;2023-01-28T01:33:49;144449.44;;;1.05;100.00
6938;BME280;40040;42.706;23.372;2023-01-28T01:36:17;144458.00;;;1.08;100.00
6938;BME280;40040;42.706;23.372;2023-01-28T01:38:46;144429.88;;;0.97;100.00
6938;BME280;40040;42.706;23.372;2023-01-28T01:41:22;144423.72;;;0.94;100.00
6938;BME280;40040;42.706;23.372;2023-01-28T01:43:53;144429.88;;;0.97;100.00
6938;BME280;40040;42.706;23.372;2023-01-28T01:46:25;144447.00;;;1.04;100.00
6938;BME280;40040;42.706;23.372;2023-01-28T01:48:54;144448.25;;;1.04;100.00
6938;BME280;40040;42.706;23.372;2023-01-28T01:51:26;144444.53;;;1.03;100.00
6938;BME280;40040;42.706;23.372;2023-01-28T01:53:56;144437.19;;;1.00;100.00
6938;BME280;40040;42.706;23.372;2023-01-28T01:56:28;144426.19;;;0.95;100.00
6938;BME280;40040;42.706;23.372;2023-01-28T01:58:57;144341.75;;;0.61;100.00
6938;BME280;40040;42.706;23.372;2023-01-28T02:01:26;144427.38;;;0.96;100.00
6938;BME280;40040;42.706;23.372;2023-01-28T02:04:00;144437.19;;;1.00;100.00
6938;BME280;40040;42.706;23.372;2023-01-28T02:06:29;144439.66;;;1.01;100.00
6938;BME280;40040;42.706;23.372;2023-01-28T02:08:56;144429.88;;;0.97;100.00
6938;BME280;40040;42.706;23.372;2023-01-28T02:11:24;144448.25;;;1.04;100.00
6938;BME280;40040;42.706;23.372;2023-01-28T02:13:55;144456.81;;;1.08;100.00
6938;BME280;40040;42.706;23.372;2023-01-28T02:16:25;144424.97;;;0.95;100.00
6938;BME280;40040;42.706;23.372;2023-01-28T02:18:53;144466.56;;;1.12;100.00
6938;BME280;40040;42.706;23.372;2023-01-28T02:21:34;144449.44;;;1.05;100.00
6938;BME280;40040;42.706;23.372;2023-01-28T02:24:22;144459.22;;;1.09;100.00
6938;BME280;40040;42.706;23.372;2023-01-28T02:27:17;144424.97;;;0.95;100.00
6938;BME280;40040;42.706;23.372;2023-01-28T02:29:53;144432.28;;;0.98;100.00
6938;BME280;40040;42.706;23.372;2023-01-28T02:32:25;144420.06;;;0.93;100.00
6938;BME280;40040;42.706;23.372;2023-01-28T02:35:00;144420.06;;;0.93;100.00
6938;BME280;40040;42.706;23.372;2023-01-28T02:37:34;144423.72;;;0.94;100.00
6938;BME280;40040;42.706;23.372;2023-01-28T02:40:09;144432.28;;;0.98;100.00
6938;BME280;40040;42.706;23.372;2023-01-28T02:42:37;144423.72;;;0.94;100.00
6938;BME280;40040;42.706;23.372;2023-01-28T02:45:14;144417.63;;;0.92;100.00
6938;BME280;40040;42.706;23.372;2023-01-28T02:47:43;144437.19;;;1.00;100.00
6938;BME280;40040;42.706;23.372;2023-01-28T02:50:30;144440.84;;;1.01;100.00
6938;BME280;40040;42.706;23.372;2023-01-28T02:53:15;144453.09;;;1.06;100.00
6938;BME280;40040;42.706;23.372;2023-01-28T02:56:14;144434.75;;;0.99;100.00
6938;BME280;40040;42.706;23.372;2023-01-28T02:58:46;144429.88;;;0.97;100.00
6938;BME280;40040;42.706;23.372;2023-01-28T03:01:24;144428.63;;;0.96;100.00
6938;BME280;40040;42.706;23.372;2023-01-28T03:03:58;144427.38;;;0.96;100.00
6938;BME280;40040;42.706;23.372;2023-01-28T03:06:30;144438.44;;;1.00;100.00
6938;BME280;40040;42.706;23.372;2023-01-28T03:09:02;144432.28;;;0.98;100.00
6938;BME280;40040;42.706;23.372;2023-01-28T03:11:52;144424.97;;;0.95;100.00
6938;BME280;40040;42.706;23.372;2023-01-28T03:14:39;144424.97;;;0.95;100.00
6938;BME280;40040;42.706;23.372;2023-01-28T03:17:27;144429.88;;;0.97;100.00
6938;BME280;40040;42.706;23.372;2023-01-28T03:20:15;144434.75;;;0.99;100.00
6938;BME280;40040;42.706;23.372;2023-01-28T03:23:02;144435.97;;;0.99;100.00
6938;BME280;40040;42.706;23.372;2023-01-28T03:25:52;144382.13;;;0.77;100.00
6938;BME280;40040;42.706;23.372;2023-01-28T03:28:41;144383.38;;;0.78;100.00
6938;BME280;40040;42.706;23.372;2023-01-28T03:31:27;144398.03;;;0.84;100.00
6938;BME280;40040;42.706;23.372;2023-01-28T03:34:13;144287.91;;;0.39;100.00
6938;BME280;40040;42.706;23.372;2023-01-28T03:36:58;144380.88;;;0.77;100.00
6938;BME280;40040;42.706;23.372;2023-01-28T03:39:27;144363.75;;;0.70;100.00
6938;BME280;40040;42.706;23.372;2023-01-28T03:41:57;144376.03;;;0.75;100.00
6938;BME280;40040;42.706;23.372;2023-01-28T03:44:24;144368.66;;;0.72;100.00
6938;BME280;40040;42.706;23.372;2023-01-28T03:47:10;144377.22;;;0.75;100.00
6938;BME280;40040;42.706;23.372;2023-01-28T03:49:40;144380.88;;;0.77;100.00
6938;BME280;40040;42.706;23.372;2023-01-28T03:52:07;144366.22;;;0.71;100.00
6938;BME280;40040;42.706;23.372;2023-01-28T03:54:34;144360.09;;;0.68;100.00
6938;BME280;40040;42.706;23.372;2023-01-28T03:57:01;144263.44;;;0.29;100.00
6938;BME280;40040;42.706;23.372;2023-01-28T03:59:28;144376.03;;;0.75;100.00
6938;BME280;40040;42.706;23.372;2023-01-28T04:01:54;144382.13;;;0.77;100.00
6938;BME280;40040;42.706;23.372;2023-01-28T04:04:21;144338.09;;;0.59;100.00
6938;BME280;40040;42.706;23.372;2023-01-28T04:06:51;144363.75;;;0.70;100.00
6938;BME280;40040;42.706;23.372;2023-01-28T04:09:19;144357.66;;;0.67;100.00
6938;BME280;40040;42.706;23.372;2023-01-28T04:11:46;144339.28;;;0.60;100.00
6938;BME280;40040;42.706;23.372;2023-01-28T04:14:13;144349.09;;;0.64;100.00
6938;BME280;40040;42.706;23.372;2023-01-28T04:16:40;144347.84;;;0.63;100.00
6938;BME280;40040;42.706;23.372;2023-01-28T04:19:08;144327.06;;;0.55;100.00
6938;BME280;40040;42.706;23.372;2023-01-28T04:21:35;144362.56;;;0.69;100.00
6938;BME280;40040;42.706;23.372;2023-01-28T04:24:04;144366.22;;;0.71;100.00
6938;BME280;40040;42.706;23.372;2023-01-28T04:26:31;144317.25;;;0.51;100.00
6938;BME280;40040;42.706;23.372;2023-01-28T04:28:58;144342.97;;;0.61;100.00
6938;BME280;40040;42.706;23.372;2023-01-28T04:31:24;144347.84;;;0.63;100.00
6938;BME280;40040;42.706;23.372;2023-01-28T04:33:51;144330.72;;;0.56;100.00
6938;BME280;40040;42.706;23.372;2023-01-28T04:36:18;144334.38;;;0.58;100.00
6938;BME280;40040;42.706;23.372;2023-01-28T04:38:45;144356.41;;;0.67;100.00
6938;BME280;40040;42.706;23.372;2023-01-28T04:41:13;144347.84;;;0.63;100.00
6938;BME280;40040;42.706;23.372;2023-01-28T04:43:40;144347.84;;;0.63;100.00
6938;BME280;40040;42.706;23.372;2023-01-28T04:46:07;144341.75;;;0.61;100.00
6938;BME280;40040;42.706;23.372;2023-01-28T04:48:34;144322.16;;;0.53;100.00
6938;BME280;40040;42.706;23.372;2023-01-28T04:51:01;144358.91;;;0.68;100.00
6938;BME280;40040;42.706;23.372;2023-01-28T04:53:28;144334.38;;;0.58;100.00
6938;BME280;40040;42.706;23.372;2023-01-28T04:55:55;144344.19;;;0.62;100.00
6938;BME280;40040;42.706;23.372;2023-01-28T04:58:23;144342.97;;;0.61;100.00
6938;BME280;40040;42.706;23.372;2023-01-28T05:00:54;144325.81;;;0.54;100.00
6938;BME280;40040;42.706;23.372;2023-01-28T05:03:22;144290.38;;;0.40;100.00
6938;BME280;40040;42.706;23.372;2023-01-28T05:05:49;144312.41;;;0.49;100.00
6938;BME280;40040;42.706;23.372;2023-01-28T05:08:16;144290.38;;;0.40;100.00
6938;BME280;40040;42.706;23.372;2023-01-28T05:10:43;144273.25;;;0.33;100.00
6938;BME280;40040;42.706;23.372;2023-01-28T05:13:10;144307.50;;;0.47;100.00
6938;BME280;40040;42.706;23.372;2023-01-28T05:15:38;144308.69;;;0.47;100.00
6938;BME280;40040;42.706;23.372;2023-01-28T05:18:05;144317.25;;;0.51;100.00
6938;BME280;40040;42.706;23.372;2023-01-28T05:20:32;144319.72;;;0.52;100.00
6938;BME280;40040;42.706;23.372;2023-01-28T05:22:59;144313.59;;;0.49;100.00
6938;BME280;40040;42.706;23.372;2023-01-28T05:25:26;144259.78;;;0.27;100.00
6938;BME280;40040;42.706;23.372;2023-01-28T05:27:53;144290.38;;;0.40;100.00
6938;BME280;40040;42.706;23.372;2023-01-28T05:30:20;144294.03;;;0.41;100.00
6938;BME280;40040;42.706;23.372;2023-01-28T05:32:48;144305.03;;;0.46;100.00
6938;BME280;40040;42.706;23.372;2023-01-28T05:35:15;144286.72;;;0.38;100.00
6938;BME280;40040;42.706;23.372;2023-01-28T05:37:42;144300.13;;;0.44;100.00
6938;BME280;40040;42.706;23.372;2023-01-28T05:40:10;144313.59;;;0.49;100.00
6938;BME280;40040;42.706;23.372;2023-01-28T05:42:37;144319.72;;;0.52;100.00
6938;BME280;40040;42.706;23.372;2023-01-28T05:45:04;144324.63;;;0.54;100.00
6938;BME280;40040;42.706;23.372;2023-01-28T05:47:32;144298.94;;;0.43;100.00
6938;BME280;40040;42.706;23.372;2023-01-28T05:50:01;144322.16;;;0.53;100.00
6938;BME280;40040;42.706;23.372;2023-01-28T05:52:28;144302.59;;;0.45;100.00
6938;BME280;40040;42.706;23.372;2023-01-28T05:54:54;144317.25;;;0.51;100.00
6938;BME280;40040;42.706;23.372;2023-01-28T05:57:21;144289.16;;;0.39;100.00
6938;BME280;40040;42.706;23.372;2023-01-28T05:59:48;144327.06;;;0.55;100.00
6938;BME280;40040;42.706;23.372;2023-01-28T06:02:15;144319.72;;;0.52;100.00
6938;BME280;40040;42.706;23.372;2023-01-28T06:04:42;144268.34;;;0.31;100.00
6938;BME280;40040;42.706;23.372;2023-01-28T06:07:10;144306.28;;;0.46;100.00
6938;BME280;40040;42.706;23.372;2023-01-28T06:09:37;144297.72;;;0.43;100.00
6938;BME280;40040;42.706;23.372;2023-01-28T06:12:05;144265.94;;;0.30;100.00
6938;BME280;40040;42.706;23.372;2023-01-28T06:14:31;144305.03;;;0.46;100.00
6938;BME280;40040;42.706;23.372;2023-01-28T06:16:58;144309.94;;;0.48;100.00
6938;BME280;40040;42.706;23.372;2023-01-28T06:19:25;144316.06;;;0.50;100.00
6938;BME280;40040;42.706;23.372;2023-01-28T06:21:52;144273.25;;;0.33;100.00
6938;BME280;40040;42.706;23.372;2023-01-28T06:24:21;144305.03;;;0.46;100.00
6938;BME280;40040;42.706;23.372;2023-01-28T06:26:48;144316.06;;;0.50;100.00
6938;BME280;40040;42.706;23.372;2023-01-28T06:29:14;144325.81;;;0.54;100.00
6938;BME280;40040;42.706;23.372;2023-01-28T06:31:41;144340.53;;;0.60;100.00
6938;BME280;40040;42.706;23.372;2023-01-28T06:34:08;144356.41;;;0.67;100.00
6938;BME280;40040;42.706;23.372;2023-01-28T06:36:35;144354.00;;;0.66;100.00
6938;BME280;40040;42.706;23.372;2023-01-28T06:39:03;144329.53;;;0.56;100.00
6938;BME280;40040;42.706;23.372;2023-01-28T06:41:32;144333.19;;;0.57;100.00
6938;BME280;40040;42.706;23.372;2023-01-28T06:43:59;144355.19;;;0.66;100.00
6938;BME280;40040;42.706;23.372;2023-01-28T06:46:26;144338.09;;;0.59;100.00
6938;BME280;40040;42.706;23.372;2023-01-28T06:48:53;144317.25;;;0.51;100.00
6938;BME280;40040;42.706;23.372;2023-01-28T06:51:20;144358.91;;;0.68;100.00
6938;BME280;40040;42.706;23.372;2023-01-28T06:53:47;144336.88;;;0.59;100.00
6938;BME280;40040;42.706;23.372;2023-01-28T06:56:14;144295.28;;;0.42;100.00
6938;BME280;40040;42.706;23.372;2023-01-28T06:58:42;144341.75;;;0.61;100.00
6938;BME280;40040;42.706;23.372;2023-01-28T07:01:09;144305.03;;;0.46;100.00
6938;BME280;40040;42.706;23.372;2023-01-28T07:03:36;144322.16;;;0.53;100.00
6938;BME280;40040;42.706;23.372;2023-01-28T07:06:03;144354.00;;;0.66;100.00
6938;BME280;40040;42.706;23.372;2023-01-28T07:08:30;144349.09;;;0.64;100.00
6938;BME280;40040;42.706;23.372;2023-01-28T07:10:57;144373.56;;;0.74;100.00
6938;BME280;40040;42.706;23.372;2023-01-28T07:13:25;144374.78;;;0.74;100.00
6938;BME280;40040;42.706;23.372;2023-01-28T07:15:53;144384.59;;;0.78;100.00
6938;BME280;40040;42.706;23.372;2023-01-28T07:18:20;144383.38;;;0.78;100.00
6938;BME280;40040;42.706;23.372;2023-01-28T07:20:47;144382.13;;;0.77;100.00
6938;BME280;40040;42.706;23.372;2023-01-28T07:23:13;144356.41;;;0.67;100.00
6938;BME280;40040;42.706;23.372;2023-01-28T07:25:40;144365.00;;;0.70;100.00
6938;BME280;40040;42.706;23.372;2023-01-28T07:28:07;144347.84;;;0.63;100.00
6938;BME280;40040;42.706;23.372;2023-01-28T07:30:34;144322.16;;;0.53;100.00
6938;BME280;40040;42.706;23.372;2023-01-28T07:33:02;144340.53;;;0.60;100.00
6938;BME280;40040;42.706;23.372;2023-01-28T07:35:31;144345.44;;;0.62;100.00
6938;BME280;40040;42.706;23.372;2023-01-28T07:37:59;144239.00;;;0.19;100.00
6938;BME280;40040;42.706;23.372;2023-01-28T07:40:27;144357.66;;;0.67;100.00
6938;BME280;40040;42.706;23.372;2023-01-28T07:42:54;144391.94;;;0.81;100.00
6938;BME280;40040;42.706;23.372;2023-01-28T07:45:21;144385.78;;;0.79;100.00
6938;BME280;40040;42.706;23.372;2023-01-28T07:47:56;144384.59;;;0.78;100.00
6938;BME280;40040;42.706;23.372;2023-01-28T07:50:25;144371.13;;;0.73;100.00
6938;BME280;40040;42.706;23.372;2023-01-28T07:52:53;144407.81;;;0.88;100.00
6938;BME280;40040;42.706;23.372;2023-01-28T07:55:20;144405.41;;;0.87;100.00
6938;BME280;40040;42.706;23.372;2023-01-28T07:57:49;144390.69;;;0.81;100.00
6938;BME280;40040;42.706;23.372;2023-01-28T08:00:17;144438.44;;;1.00;100.00
6938;BME280;40040;42.706;23.372;2023-01-28T08:02:43;144445.75;;;1.03;100.00
6938;BME280;40040;42.706;23.372;2023-01-28T08:05:14;144455.56;;;1.07;100.00
6938;BME280;40040;42.706;23.372;2023-01-28T08:07:43;144448.25;;;1.04;100.00
6938;BME280;40040;42.706;23.372;2023-01-28T08:10:10;144448.25;;;1.04;100.00
6938;BME280;40040;42.706;23.372;2023-01-28T08:12:37;144415.16;;;0.91;100.00
6938;BME280;40040;42.706;23.372;2023-01-28T08:15:06;144388.25;;;0.80;100.00
6938;BME280;40040;42.706;23.372;2023-01-28T08:17:33;144378.47;;;0.76;100.00
6938;BME280;40040;42.706;23.372;2023-01-28T08:20:00;144404.16;;;0.86;100.00
6938;BME280;40040;42.706;23.372;2023-01-28T08:22:27;144379.69;;;0.76;100.00
6938;BME280;40040;42.706;23.372;2023-01-28T08:24:55;144407.81;;;0.88;100.00
6938;BME280;40040;42.706;23.372;2023-01-28T08:27:22;144393.16;;;0.82;100.00
6938;BME280;40040;42.706;23.372;2023-01-28T08:29:49;144388.25;;;0.80;100.00
6938;BME280;40040;42.706;23.372;2023-01-28T08:32:16;144429.88;;;0.97;100.00
6938;BME280;40040;42.706;23.372;2023-01-28T08:34:43;144394.34;;;0.82;100.00
6938;BME280;40040;42.706;23.372;2023-01-28T08:37:09;144444.53;;;1.03;100.00
6938;BME280;40040;42.706;23.372;2023-01-28T08:39:36;144422.53;;;0.94;100.00
6938;BME280;40040;42.706;23.372;2023-01-28T08:42:06;144437.19;;;1.00;100.00
6938;BME280;40040;42.706;23.372;2023-01-28T08:44:33;144458.00;;;1.08;100.00
6938;BME280;40040;42.706;23.372;2023-01-28T08:46:59;144467.81;;;1.12;100.00
6938;BME280;40040;42.706;23.372;2023-01-28T08:49:26;144476.38;;;1.16;100.00
6938;BME280;40040;42.706;23.372;2023-01-28T08:51:53;144458.00;;;1.08;100.00
6938;BME280;40040;42.706;23.372;2023-01-28T08:54:20;144499.59;;;1.26;100.00
6938;BME280;40040;42.706;23.372;2023-01-28T08:56:47;144510.66;;;1.30;100.00
6938;BME280;40040;42.706;23.372;2023-01-28T08:59:17;144505.75;;;1.28;100.00
6938;BME280;40040;42.706;23.372;2023-01-28T09:01:44;144548.59;;;1.46;100.00
6938;BME280;40040;42.706;23.372;2023-01-28T09:04:11;144547.38;;;1.45;100.00
6938;BME280;40040;42.706;23.372;2023-01-28T09:06:37;144565.75;;;1.53;100.00
6938;BME280;40040;42.706;23.372;2023-01-28T09:09:04;144565.75;;;1.53;100.00
6938;BME280;40040;42.706;23.372;2023-01-28T09:11:31;144576.75;;;1.57;100.00
6938;BME280;40040;42.706;23.372;2023-01-28T09:13:58;144549.84;;;1.46;100.00
6938;BME280;40040;42.706;23.372;2023-01-28T09:16:26;144478.81;;;1.17;100.00
6938;BME280;40040;42.706;23.372;2023-01-28T09:18:53;144590.22;;;1.63;100.00
6938;BME280;40040;42.706;23.372;2023-01-28T09:21:20;144571.84;;;1.55;100.00
6938;BME280;40040;42.706;23.372;2023-01-28T09:23:46;144601.28;;;1.67;100.00
6938;BME280;40040;42.706;23.372;2023-01-28T09:26:13;144601.28;;;1.67;100.00
6938;BME280;40040;42.706;23.372;2023-01-28T09:28:40;144541.28;;;1.43;100.00
6938;BME280;40040;42.706;23.372;2023-01-28T09:31:09;144613.53;;;1.72;100.00
6938;BME280;40040;42.706;23.372;2023-01-28T09:33:38;144562.09;;;1.51;100.00
6938;BME280;40040;42.706;23.372;2023-01-28T09:36:07;144552.28;;;1.47;100.00
6938;BME280;40040;42.706;23.372;2023-01-28T09:38:36;144595.13;;;1.65;100.00
6938;BME280;40040;42.706;23.372;2023-01-28T09:41:16;144615.94;;;1.73;100.00
6938;BME280;40040;42.706;23.372;2023-01-28T09:43:58;144615.94;;;1.73;100.00
6938;BME280;40040;42.706;23.372;2023-01-28T09:46:31;144596.38;;;1.65;100.00
6938;BME280;40040;42.706;23.372;2023-01-28T09:49:02;144530.22;;;1.38;100.00
6938;BME280;40040;42.706;23.372;2023-01-28T09:51:33;144557.19;;;1.49;100.00
6938;BME280;40040;42.706;23.372;2023-01-28T09:54:04;144532.69;;;1.39;100.00
6938;BME280;40040;42.706;23.372;2023-01-28T09:56:35;144548.59;;;1.46;100.00
6938;BME280;40040;42.706;23.372;2023-01-28T09:59:15;144557.19;;;1.49;100.00
6938;BME280;40040;42.706;23.372;2023-01-28T10:01:46;144592.69;;;1.64;100.00
6938;BME280;40040;42.706;23.372;2023-01-28T10:04:25;144615.94;;;1.73;100.00
6938;BME280;40040;42.706;23.372;2023-01-28T10:07:04;144622.09;;;1.76;100.00
6938;BME280;40040;42.706;23.372;2023-01-28T10:09:39;144579.22;;;1.58;100.00
6938;BME280;40040;42.706;23.372;2023-01-28T10:12:20;144645.34;;;1.85;100.00
6938;BME280;40040;42.706;23.372;2023-01-28T10:15:02;144633.09;;;1.80;100.00
6938;BME280;40040;42.706;23.372;2023-01-28T10:17:36;144617.19;;;1.74;100.00
6938;BME280;40040;42.706;23.372;2023-01-28T10:20:17;144628.19;;;1.78;100.00
6938;BME280;40040;42.706;23.372;2023-01-28T10:22:49;144574.31;;;1.56;100.00
6938;BME280;40040;42.706;23.372;2023-01-28T10:25:20;144647.81;;;1.86;100.00
6938;BME280;40040;42.706;23.372;2023-01-28T10:27:48;144635.56;;;1.81;100.00
6938;BME280;40040;42.706;23.372;2023-01-28T10:30:17;144649.00;;;1.87;100.00
6938;BME280;40040;42.706;23.372;2023-01-28T10:32:50;144635.56;;;1.81;100.00
6938;BME280;40040;42.706;23.372;2023-01-28T10:35:19;144650.25;;;1.87;100.00
6938;BME280;40040;42.706;23.372;2023-01-28T10:37:46;144652.69;;;1.88;100.00
6938;BME280;40040;42.706;23.372;2023-01-28T10:40:15;144640.44;;;1.83;100.00
6938;BME280;40040;42.706;23.372;2023-01-28T10:42:42;144635.56;;;1.81;100.00
6938;BME280;40040;42.706;23.372;2023-01-28T10:45:16;144645.34;;;1.85;100.00
6938;BME280;40040;42.706;23.372;2023-01-28T10:47:47;144652.69;;;1.88;100.00
6938;BME280;40040;42.706;23.372;2023-01-28T10:50:21;144667.41;;;1.94;100.00
6938;BME280;40040;42.706;23.372;2023-01-28T10:52:52;144652.69;;;1.88;100.00
6938;BME280;40040;42.706;23.372;2023-01-28T10:55:20;144636.75;;;1.82;100.00
6938;BME280;40040;42.706;23.372;2023-01-28T10:57:47;144579.22;;;1.58;100.00
6938;BME280;40040;42.706;23.372;2023-01-28T11:00:22;144657.59;;;1.90;100.00
6938;BME280;40040;42.706;23.372;2023-01-28T11:02:51;144677.22;;;1.98;100.00
6938;BME280;40040;42.706;23.372;2023-01-28T11:05:22;144693.13;;;2.05;100.00
6938;BME280;40040;42.706;23.372;2023-01-28T11:08:03;144684.53;;;2.01;100.00
6938;BME280;40040;42.706;23.372;2023-01-28T11:10:31;144695.56;;;2.06;100.00
6938;BME280;40040;42.706;23.372;2023-01-28T11:13:00;144674.72;;;1.97;100.00
6938;BME280;40040;42.706;23.372;2023-01-28T11:15:27;144715.19;;;2.14;100.00
6938;BME280;40040;42.706;23.372;2023-01-28T11:17:57;144700.47;;;2.08;100.00
6938;BME280;40040;42.706;23.372;2023-01-28T11:20:27;144689.47;;;2.03;100.00
6938;BME280;40040;42.706;23.372;2023-01-28T11:22:55;144667.41;;;1.94;100.00
6938;BME280;40040;42.706;23.372;2023-01-28T11:25:28;144689.47;;;2.03;100.00
6938;BME280;40040;42.706;23.372;2023-01-28T11:27:56;144704.13;;;2.09;100.00
6938;BME280;40040;42.706;23.372;2023-01-28T11:30:25;144678.41;;;1.99;100.00
6938;BME280;40040;42.706;23.372;2023-01-28T11:32:55;144736.00;;;2.22;100.00
6938;BME280;40040;42.706;23.372;2023-01-28T11:35:27;144733.53;;;2.21;100.00
6938;BME280;40040;42.706;23.372;2023-01-28T11:37:55;144736.00;;;2.22;100.00
6938;BME280;40040;42.706;23.372;2023-01-28T11:40:23;144747.03;;;2.27;100.00
6938;BME280;40040;42.706;23.372;2023-01-28T11:42:50;144747.03;;;2.27;100.00
6938;BME280;40040;42.706;23.372;2023-01-28T11:45:19;144756.84;;;2.31;100.00
6938;BME280;40040;42.706;23.372;2023-01-28T11:47:55;144774.00;;;2.38;100.00
6938;BME280;40040;42.706;23.372;2023-01-28T11:50:37;144699.28;;;2.07;100.00
6938;BME280;40040;42.706;23.372;2023-01-28T11:53:19;144807.06;;;2.52;100.00
6938;BME280;40040;42.706;23.372;2023-01-28T11:55:59;144815.66;;;2.55;100.00
6938;BME280;40040;42.706;23.372;2023-01-28T11:58:37;144815.66;;;2.55;100.00
6938;BME280;40040;42.706;23.372;2023-01-28T12:01:09;144829.13;;;2.61;100.00
6938;BME280;40040;42.706;23.372;2023-01-28T12:04:07;144841.41;;;2.66;100.00
6938;BME280;40040;42.706;23.372;2023-01-28T12:06:58;144836.47;;;2.64;100.00
6938;BME280;40040;42.706;23.372;2023-01-28T12:09:33;144848.72;;;2.69;100.00
6938;BME280;40040;42.706;23.372;2023-01-28T12:12:19;144849.97;;;2.69;100.00
6938;BME280;40040;42.706;23.372;2023-01-28T12:15:11;144821.81;;;2.58;100.00
6938;BME280;40040;42.706;23.372;2023-01-28T12:17:52;144814.41;;;2.55;100.00
6938;BME280;40040;42.706;23.372;2023-01-28T12:20:28;144853.66;;;2.71;100.00
6938;BME280;40040;42.706;23.372;2023-01-28T12:23:28;144846.31;;;2.68;100.00
6938;BME280;40040;42.706;23.372;2023-01-28T12:26:05;144874.47;;;2.79;100.00
6938;BME280;40040;42.706;23.372;2023-01-28T12:28:51;144856.13;;;2.72;100.00
6938;BME280;40040;42.706;23.372;2023-01-28T12:31:45;144874.47;;;2.79;100.00
6938;BME280;40040;42.706;23.372;2023-01-28T12:37:19;144897.78;;;2.89;100.00
6938;BME280;40040;42.706;23.372;2023-01-28T12:40:02;144819.31;;;2.57;100.00
6938;BME280;40040;42.706;23.372;2023-01-28T12:42:35;144848.72;;;2.69;100.00
6938;BME280;40040;42.706;23.372;2023-01-28T12:45:12;144837.72;;;2.64;100.00
6938;BME280;40040;42.706;23.372;2023-01-28T12:47:46;144845.06;;;2.67;100.00
6938;BME280;40040;42.706;23.372;2023-01-28T12:50:17;144841.41;;;2.66;100.00
6938;BME280;40040;42.706;23.372;2023-01-28T12:52:49;144804.63;;;2.51;100.00
6938;BME280;40040;42.706;23.372;2023-01-28T12:55:34;144847.53;;;2.68;100.00
6938;BME280;40040;42.706;23.372;2023-01-28T12:58:05;144832.81;;;2.62;100.00
6938;BME280;40040;42.706;23.372;2023-01-28T13:00:34;144772.75;;;2.38;100.00
6938;BME280;40040;42.706;23.372;2023-01-28T13:03:09;144767.84;;;2.36;100.00
6938;BME280;40040;42.706;23.372;2023-01-28T13:05:40;144805.81;;;2.51;100.00
6938;BME280;40040;42.706;23.372;2023-01-28T13:08:14;144818.13;;;2.56;100.00
6938;BME280;40040;42.706;23.372;2023-01-28T13:10:45;144823.00;;;2.58;100.00